Nearby METAR Reports

Live Weather Gauges   
Station Dashboard   
KEIK - Erie Muni, Colorado, USA
Distance from station: NW 9mi, 15km
Updated: Thu, 29-Feb-2024 9:15pm MST
Clear
Clear
 Wind from S
Wind: S 5 mph , 7 km/h
Temperature: 41°F , 5°C
Wind Chill: 38°F , 3°C
Dew Point: 7°F , -14°C
Humidity: 24%
Barometer: 29.85 inHg , 1010.8 hPa
Clouds: Clear
Visibility: 10 miles , 16 km
2024/03/01 04:15 KEIK 010415Z AUTO 19004KT 10SM CLR 05/M14 A2985 RMK AO2 T00471136
KBJC - Broomfield/Jeffco, Colorado, USA
Distance from station: W 10mi, 16km
Updated: Thu, 29-Feb-2024 8:45pm MST
Clear
Clear
 Wind from W
Wind: W 10 mph , 17 km/h
Temperature: 45°F , 7°C
Wind Chill: 40°F , 4°C
Dew Point: 3°F , -16°C
Humidity: 18%
Barometer: 29.86 inHg , 1011.2 hPa
Clouds: Clear
Visibility: 10 miles , 16 km
2024/03/01 03:45 KBJC 010345Z 28009KT 10SM SKC 07/M16 A2986
KDEN - Denver (DIA), Colorado, USA
Distance from station: ESE 16mi, 26km
Updated: Thu, 29-Feb-2024 8:53pm MST
Few Clouds
Few Clouds
 Wind from WSW
Wind: WSW 8 mph , 13 km/h
Temperature: 46°F , 8°C
Wind Chill: 42°F , 6°C
Dew Point: 3°F , -16°C
Humidity: 17%
Barometer: 29.85 inHg , 1010.8 hPa
Clouds: Few Clouds
Visibility: 10 miles , 16 km
Cloud details: Few Clouds 13000 ft
2024/03/01 03:53 KDEN 010353Z 24007KT 10SM FEW130 08/M16 A2985 RMK AO2 SLP078 T00831161
 
KBKF - Buckley ANGB/Den, Colorado, USA
Distance from station: SE 17mi, 27km
Updated: Thu, 29-Feb-2024 8:58pm MST
Few Clouds
Few Clouds
 Wind from SSE
Wind: SSE 10 mph , 17 km/h
Temperature: 41°F , 5°C
Wind Chill: 35°F , 2°C
Dew Point: 9°F , -13°C
Humidity: 26%
Barometer: 29.85 inHg , 1010.8 hPa
Clouds: Few Clouds
Visibility: 10 miles , 16 km
Cloud details: Few Clouds 14000 ft
2024/03/01 03:58 KBKF 010358Z 16009KT 10SM FEW140 05/M13 A2985 RMK AO2A SLP084 T00481131
KBDU - Boulder Muni, Colorado, USA
Distance from station: WNW 18mi, 29km
Updated: Thu, 29-Feb-2024 9:15pm MST
Clear
Clear
 Wind from SW
Wind: SW 12 mph , 19 km/h, Gust: 23 mph , 37 km/h
Temperature: 52°F , 11°C
Dew Point: 7°F , -14°C
Humidity: 16%
Barometer: 29.84 inHg , 1010.5 hPa
Clouds: Clear
Visibility: 10 miles , 16 km
2024/03/01 04:15 KBDU 010415Z AUTO 23010G20KT 10SM CLR 11/M14 A2984 RMK AO2
KLMO - Longmont/Vbrand, Colorado, USA
Distance from station: NW 21mi, 34km
Updated: Thu, 29-Feb-2024 9:15pm MST
Clear
Clear
 Wind from SSW
Wind: SSW 3 mph , 6 km/h
Temperature: 43°F , 6°C
Dew Point: 10°F , -12°C
Humidity: 26%
Barometer: 29.86 inHg , 1011.2 hPa
Clouds: Clear
Visibility: 10 miles , 16 km
2024/03/01 04:15 KLMO 010415Z AUTO 20003KT 10SM CLR 06/M12 A2986 RMK AO2 T00591125
 
KAPA - Denver/Arapahoe, Colorado, USA
Distance from station: S 25mi, 39km
Updated: Thu, 29-Feb-2024 8:53pm MST
Clear
Clear
 Wind from SW
Wind: SW 8 mph , 13 km/h
Temperature: 41°F , 5°C
Wind Chill: 36°F , 2°C
Dew Point: 10°F , -12°C
Humidity: 28%
Barometer: 29.87 inHg , 1011.5 hPa
Clouds: Clear
Visibility: 10 miles , 16 km
2024/03/01 03:53 KAPA 010353Z 22007KT 10SM CLR 05/M12 A2987 RMK AO2 SLP106 T00501122
KFNL - Ft Collins/Lovel, Colorado, USA
Distance from station: N 37mi, 60km
Updated: Thu, 29-Feb-2024 8:56pm MST
Clear
Clear
 Wind from S
Wind: S 5 mph , 7 km/h
Temperature: 46°F , 8°C
Wind Chill: 44°F , 7°C
Dew Point: 5°F , -15°C
Humidity: 18%
Barometer: 29.84 inHg , 1010.5 hPa
Clouds: Clear
Visibility: 10 miles , 16 km
2024/03/01 03:56 KFNL 010356Z 18004KT 10SM CLR 08/M15 A2984 RMK AO2 SLP092 T00831150
KGXY - Greeley/Weld, Colorado, USA
Distance from station: NNE 38mi, 62km
Updated: Thu, 29-Feb-2024 8:56pm MST
Clear
Clear
 Wind from W
Wind: W 3 mph , 6 km/h
Temperature: 39°F , 4°C
Dew Point: 12°F , -11°C
Humidity: 33%
Barometer: 29.84 inHg , 1010.5 hPa
Clouds: Clear
Visibility: 10 miles , 16 km
2024/03/01 03:56 KGXY 010356Z 28003KT 10SM CLR 04/M11 A2984 RMK AO2 SLP121 T00391106
 
KMNH - Monument/Elbert, Colorado, USA
Distance from station: SSE 51mi, 81km
Updated: Thu, 29-Feb-2024 9:15pm MST
Clear
Clear
 Wind from S
Wind: S 6 mph , 9 km/h
Temperature: 30°F , -1°C
Wind Chill: 24°F , -4°C
Dew Point: -31°F , -35°C
Humidity: 5%
Barometer: 29.95 inHg , 1014.2 hPa
Clouds: Clear
Visibility: 10 miles , 16 km
2024/03/01 04:15 KMNH 010415Z AUTO 17005KT 10SM CLR M01/M35 A2995 RMK AO2
KAFF - USAF Academy/Cos, Colorado, USA
Distance from station: S 66mi, 106km
Updated: Thu, 29-Feb-2024 8:55pm MST
Clear
Clear
 Wind from W
Wind: W 13 mph , 20 km/h
Temperature: 46°F , 8°C
Wind Chill: 40°F , 4°C
Dew Point: -0°F , -18°C
Humidity: 14%
Barometer: 29.91 inHg , 1012.9 hPa
Clouds: Clear
Visibility: 10 miles , 16 km
2024/03/01 03:55 KAFF 010355Z AUTO 27011KT 10SM CLR 08/M18 A2991 RMK AO2 SLP092 T00761182
K4BM - Wilkerson Pass, Colorado, USA
Distance from station: SSW 68mi, 109km
Updated: Thu, 29-Feb-2024 9:15pm MST
Clear
Clear
 Wind from S
Wind: S 12 mph , 19 km/h
Temperature: 28°F , -2°C
Wind Chill: 18°F , -8°C
Dew Point: 1°F , -17°C
Humidity: 31%
Barometer: 30.06 inHg , 1017.9 hPa
Clouds: Clear
Visibility: 10 miles , 16 km
2024/03/01 04:15 K4BM 010415Z AUTO 17010KT 10SM CLR M02/M17 A3006 RMK AO2
 
KFLY - Co Spngs Meadow, Colorado, USA
Distance from station: SSE 70mi, 112km
Updated: Thu, 29-Feb-2024 9:15pm MST
Clear
Clear
 Wind from WNW
Wind: WNW 7 mph , 11 km/h
Temperature: 34°F , 1°C
Wind Chill: 28°F , -2°C
Dew Point: 10°F , -12°C
Humidity: 38%
Barometer: 29.95 inHg , 1014.2 hPa
Clouds: Clear
Visibility: 10 miles , 16 km
2024/03/01 04:15 KFLY 010415Z AUTO 29006KT 10SM CLR 01/M12 A2995 RMK AO2 T00111119
KCCU - Red Cliff Pass, Colorado, USA
Distance from station: WSW 72mi, 116km
Updated: Thu, 29-Feb-2024 9:15pm MST
Clear
Clear
 Wind from SW
Wind: SW 16 mph , 26 km/h, Gust: 28 mph , 44 km/h
Temperature: 25°F , -4°C
Wind Chill: 12°F , -11°C
Dew Point: 1°F , -17°C
Humidity: 36%
Barometer: 30.06 inHg , 1017.9 hPa
Clouds: Clear
Visibility: 10 miles , 16 km
2024/03/01 04:15 KCCU 010415Z AUTO 23014G24KT 180V250 10SM CLR M04/M17 A3006 RMK AO2
K20V - Kremmling Awos, Colorado, USA
Distance from station: W 77mi, 123km
Updated: Thu, 29-Feb-2024 9:15pm MST
Clear
Clear
 Wind from calm
Wind: Calm
Temperature: 10°F , -12°C
Dew Point: 7°F , -14°C
Humidity: 85%
Barometer: 30.01 inHg , 1016.3 hPa
Clouds: Clear
Visibility: 10 miles , 16 km
2024/03/01 04:15 K20V 010415Z AUTO 00000KT 10SM CLR M12/M14 A3001 RMK AO2
 
KCOS - Colorado Springs, Colorado, USA
Distance from station: S 77mi, 124km
Updated: Thu, 29-Feb-2024 8:54pm MST
Clear
Clear
 Wind from NNE
Wind: NNE 10 mph , 17 km/h
Temperature: 37°F , 3°C
Wind Chill: 30°F , -1°C
Dew Point: 12°F , -11°C
Humidity: 35%
Barometer: 29.92 inHg , 1013.2 hPa
Clouds: Clear
Visibility: 10 miles , 16 km
2024/03/01 03:54 KCOS 010354Z 02009KT 10SM CLR 03/M11 A2992 RMK AO2 SLP112 T00281111
KLIC - Limon, Colorado, USA
Distance from station: ESE 81mi, 130km
Updated: Thu, 29-Feb-2024 8:55pm MST
Clear
Clear
 Wind from SE
Wind: SE 3 mph , 6 km/h
Temperature: 34°F , 1°C
Dew Point: 14°F , -10°C
Humidity: 44%
Barometer: 29.88 inHg , 1011.9 hPa
Clouds: Clear
Visibility: 10 miles , 16 km
2024/03/01 03:55 KLIC 010355Z AUTO 13003KT 10SM CLR 01/M10 A2988 RMK AO2 SLP108 T00061100
KFEW - Warren Air Base, Wyoming, USA
Distance from station: N 84mi, 135km
Updated: Thu, 29-Feb-2024 8:55pm MST
Clear
Clear
 Wind from W
Wind: W 9 mph , 15 km/h
Temperature: 37°F , 3°C
Wind Chill: 30°F , -1°C
Dew Point: 9°F , -13°C
Humidity: 30%
Barometer: 29.85 inHg , 1010.8 hPa
Clouds: Clear
Visibility: 10 miles , 16 km
2024/03/01 03:55 KFEW 010355Z AUTO 26008KT 10SM CLR 03/M13 A2985 RMK AO2 SLP097 T00331126 $
 
KCYS - Cheyenne, Wyoming, USA
Distance from station: N 85mi, 138km
Updated: Thu, 29-Feb-2024 8:53pm MST
Clear
Clear
 Wind from SW
Wind: SW 3 mph , 6 km/h
Temperature: 36°F , 2°C
Dew Point: 12°F , -11°C
Humidity: 38%
Barometer: 29.84 inHg , 1010.5 hPa
Clouds: Clear
Visibility: 10 miles , 16 km
2024/03/01 03:53 KCYS 010353Z 23003KT 10SM CLR 02/M11 A2984 RMK AO2 SLP089 T00221106